createdAt,value
2019-01-18T00:00:42.216Z,17.90
2019-01-18T00:01:42.209Z,13.00
2019-01-18T00:02:42.190Z,14.50
2019-01-18T00:03:42.179Z,18.40
2019-01-18T00:04:42.167Z,17.30
2019-01-18T00:05:42.154Z,19.30
2019-01-18T00:06:42.140Z,20.90
2019-01-18T00:07:42.129Z,16.00
2019-01-18T00:08:42.120Z,14.70
2019-01-18T00:09:42.104Z,17.30
2019-01-18T00:10:42.090Z,19.80
2019-01-18T00:11:42.080Z,15.90
2019-01-18T00:12:42.065Z,15.90
2019-01-18T00:13:42.059Z,15.30
2019-01-18T00:14:42.039Z,14.20
2019-01-18T00:15:42.027Z,17.90
2019-01-18T00:16:42.014Z,15.70
2019-01-18T00:17:42.002Z,15.30
2019-01-18T00:18:41.989Z,15.60
2019-01-18T00:19:41.975Z,16.70
2019-01-18T00:20:41.964Z,15.00
2019-01-18T00:21:41.952Z,14.50
2019-01-18T00:22:41.939Z,17.10
2019-01-18T00:23:41.928Z,15.00
2019-01-18T00:24:41.916Z,23.40
2019-01-18T00:25:41.902Z,14.20
2019-01-18T00:26:41.888Z,14.00
2019-01-18T00:27:41.877Z,16.30
2019-01-18T00:28:41.863Z,17.10
2019-01-18T00:29:41.852Z,17.90
2019-01-18T00:30:41.839Z,14.00
2019-01-18T00:31:41.827Z,15.00
2019-01-18T00:32:41.814Z,10.50
2019-01-18T00:33:41.803Z,13.80
2019-01-18T00:34:41.789Z,14.30
2019-01-18T00:35:41.775Z,13.10
2019-01-18T00:36:41.763Z,15.10
2019-01-18T00:37:41.753Z,14.00
2019-01-18T00:38:41.739Z,15.10
2019-01-18T00:39:41.726Z,13.00
2019-01-18T00:40:41.715Z,14.10
2019-01-18T00:41:41.704Z,11.90
2019-01-18T00:42:41.688Z,13.40
2019-01-18T00:43:41.676Z,15.10
2019-01-18T00:44:41.666Z,12.80
2019-01-18T00:45:41.650Z,13.20
2019-01-18T00:46:41.637Z,17.20
2019-01-18T00:47:41.625Z,14.70
2019-01-18T00:48:41.616Z,14.50
2019-01-18T00:49:41.600Z,15.90
2019-01-18T00:50:41.590Z,19.50
2019-01-18T00:51:41.573Z,13.00
2019-01-18T00:52:41.569Z,10.80
2019-01-18T00:53:41.548Z,18.30
2019-01-18T00:54:41.536Z,14.00
2019-01-18T00:55:41.523Z,17.40
2019-01-18T00:56:41.511Z,13.50
2019-01-18T00:57:41.499Z,15.90
2019-01-18T00:58:41.483Z,14.40
2019-01-18T00:59:41.472Z,11.90
2019-01-18T01:00:41.459Z,15.20
2019-01-18T01:01:41.446Z,14.30
2019-01-18T01:02:41.432Z,14.50
2019-01-18T01:03:41.419Z,12.20
2019-01-18T01:04:41.411Z,13.50
2019-01-18T01:05:41.396Z,13.10
2019-01-18T01:06:41.381Z,17.80
2019-01-18T01:07:41.369Z,14.20
2019-01-18T01:08:41.356Z,14.80
2019-01-18T01:09:41.343Z,17.80
2019-01-18T01:10:41.328Z,14.60
2019-01-18T01:11:41.317Z,12.20
2019-01-18T01:12:41.314Z,14.40
2019-01-18T01:13:41.291Z,14.90
2019-01-18T01:14:41.278Z,15.10
2019-01-18T01:15:41.264Z,14.60
2019-01-18T01:16:41.252Z,15.00
2019-01-18T01:17:41.240Z,15.20
2019-01-18T01:18:41.226Z,17.40
2019-01-18T01:19:41.213Z,16.80
2019-01-18T01:20:41.200Z,25.20
2019-01-18T01:21:41.188Z,17.30
2019-01-18T01:22:41.208Z,16.10
2019-01-18T01:23:41.160Z,18.20
2019-01-18T01:24:41.147Z,18.30
2019-01-18T01:25:41.134Z,16.20
2019-01-18T01:26:41.121Z,17.80
2019-01-18T01:27:41.125Z,19.80
2019-01-18T01:28:41.094Z,21.60
2019-01-18T01:29:43.132Z,16.90
2019-01-18T01:30:41.074Z,15.50
2019-01-18T01:31:41.054Z,18.00
2019-01-18T01:32:41.041Z,18.60
2019-01-18T01:33:41.028Z,17.60
2019-01-18T01:34:41.015Z,18.10
2019-01-18T01:35:41.001Z,19.40
2019-01-18T01:36:40.988Z,16.60
2019-01-18T01:37:40.978Z,16.50
2019-01-18T01:38:40.961Z,16.00
2019-01-18T01:39:40.949Z,19.40
2019-01-18T01:40:40.934Z,18.30
2019-01-18T01:41:40.921Z,18.50
2019-01-18T01:42:40.907Z,18.00
2019-01-18T01:43:40.894Z,17.80
2019-01-18T01:44:40.884Z,18.50
2019-01-18T01:45:40.867Z,14.20
2019-01-18T01:46:40.854Z,18.20
2019-01-18T01:47:40.841Z,17.40
2019-01-18T01:48:40.828Z,19.50
2019-01-18T01:49:40.815Z,18.30
2019-01-18T01:50:40.802Z,17.60
2019-01-18T01:51:40.789Z,17.50
2019-01-18T01:52:40.775Z,17.30
2019-01-18T01:53:40.762Z,17.40
2019-01-18T01:54:40.747Z,17.10
2019-01-18T01:55:40.734Z,21.30
2019-01-18T01:56:40.721Z,22.10
2019-01-18T01:57:40.708Z,16.80
2019-01-18T01:58:40.693Z,24.50
2019-01-18T01:59:40.681Z,15.10
2019-01-18T02:00:40.666Z,17.90
2019-01-18T02:01:40.654Z,16.50
2019-01-18T02:02:40.644Z,18.10
2019-01-18T02:03:40.631Z,16.70
2019-01-18T02:04:40.613Z,17.50
2019-01-18T02:05:40.601Z,16.40
2019-01-18T02:06:40.586Z,16.00
2019-01-18T02:07:40.574Z,16.80
2019-01-18T02:08:40.561Z,17.10
2019-01-18T02:09:40.548Z,19.80
2019-01-18T02:10:40.534Z,17.10
2019-01-18T02:11:40.519Z,16.80
2019-01-18T02:12:40.505Z,15.80
2019-01-18T02:13:40.492Z,15.50
2019-01-18T02:14:40.480Z,18.70
2019-01-18T02:15:40.465Z,17.00
2019-01-18T02:16:40.451Z,19.20
2019-01-18T02:17:40.438Z,17.00
2019-01-18T02:18:40.424Z,14.70
2019-01-18T02:19:40.411Z,19.80
2019-01-18T02:20:40.398Z,21.60
2019-01-18T02:21:40.385Z,17.90
2019-01-18T02:22:40.371Z,16.00
2019-01-18T02:23:40.353Z,17.20
2019-01-18T02:24:40.340Z,17.70
2019-01-18T02:25:40.326Z,20.00
2019-01-18T02:26:40.316Z,21.10
2019-01-18T02:27:40.303Z,19.50
2019-01-18T02:28:40.290Z,19.30
2019-01-18T02:29:40.276Z,18.40
2019-01-18T02:30:40.261Z,21.90
2019-01-18T02:31:40.245Z,21.20
2019-01-18T02:32:40.240Z,21.60
2019-01-18T02:33:40.224Z,20.30
2019-01-18T02:34:40.207Z,19.90
2019-01-18T02:35:40.190Z,17.80
2019-01-18T02:36:40.177Z,19.40
2019-01-18T02:37:40.163Z,18.20
2019-01-18T02:38:40.155Z,20.90
2019-01-18T02:39:40.140Z,20.90
2019-01-18T02:40:40.130Z,20.00
2019-01-18T02:41:40.115Z,22.90
2019-01-18T02:42:40.096Z,20.20
2019-01-18T02:43:40.085Z,16.60
2019-01-18T02:44:40.068Z,23.70
2019-01-18T02:45:40.054Z,20.10
2019-01-18T02:46:40.049Z,25.70
2019-01-18T02:47:40.030Z,22.20
2019-01-18T02:48:40.017Z,22.00
2019-01-18T02:49:40.000Z,26.70
2019-01-18T02:50:39.990Z,21.10
2019-01-18T02:51:39.976Z,22.20
2019-01-18T02:52:39.964Z,17.60
2019-01-18T02:53:39.950Z,16.60
2019-01-18T02:54:39.931Z,19.10
2019-01-18T02:55:39.919Z,18.60
2019-01-18T02:56:39.904Z,18.30
2019-01-18T02:57:39.891Z,18.30
2019-01-18T02:58:39.881Z,18.70
2019-01-18T02:59:39.867Z,20.10
2019-01-18T03:00:39.854Z,20.40
2019-01-18T03:01:39.839Z,15.40
2019-01-18T03:02:39.822Z,21.50
2019-01-18T03:03:39.808Z,17.50
2019-01-18T03:04:39.803Z,24.70
2019-01-18T03:05:39.786Z,17.70
2019-01-18T03:06:39.777Z,17.00
2019-01-18T03:07:39.752Z,20.30
2019-01-18T03:08:39.739Z,17.20
2019-01-18T03:09:39.725Z,18.60
2019-01-18T03:10:39.719Z,21.40
2019-01-18T03:11:39.703Z,18.40
2019-01-18T03:12:39.690Z,18.60
2019-01-18T03:13:39.674Z,20.70
2019-01-18T03:14:39.656Z,19.90
2019-01-18T03:15:39.643Z,19.80
2019-01-18T03:16:39.630Z,16.00
2019-01-18T03:17:39.616Z,20.00
2019-01-18T03:18:39.606Z,18.50
2019-01-18T03:19:39.597Z,18.00
2019-01-18T03:20:39.575Z,17.80
2019-01-18T03:21:39.561Z,23.20
2019-01-18T03:22:39.553Z,24.70
2019-01-18T03:23:39.540Z,21.20
2019-01-18T03:24:39.523Z,22.40
2019-01-18T03:25:39.509Z,22.00
2019-01-18T03:26:39.491Z,23.20
2019-01-18T03:27:39.483Z,21.50
2019-01-18T03:28:39.464Z,23.10
2019-01-18T03:29:39.449Z,23.50
2019-01-18T03:30:39.441Z,24.50
2019-01-18T03:31:39.427Z,27.40
2019-01-18T03:32:39.414Z,25.60
2019-01-18T03:33:39.400Z,22.40
2019-01-18T03:34:39.381Z,21.80
2019-01-18T03:35:39.367Z,21.50
2019-01-18T03:36:39.357Z,23.50
2019-01-18T03:37:39.345Z,26.70
2019-01-18T03:38:39.324Z,21.20
2019-01-18T03:39:39.310Z,24.50
2019-01-18T03:40:39.295Z,20.20
2019-01-18T03:41:39.282Z,23.20
2019-01-18T03:42:39.272Z,18.80
2019-01-18T03:43:39.257Z,22.70
2019-01-18T03:44:39.245Z,19.50
2019-01-18T03:45:39.230Z,22.00
2019-01-18T03:46:39.211Z,23.00
2019-01-18T03:47:39.197Z,22.50
2019-01-18T03:48:39.184Z,20.40
2019-01-18T03:49:39.171Z,22.40
2019-01-18T03:50:39.160Z,24.00
2019-01-18T03:51:39.147Z,23.90
2019-01-18T03:52:39.127Z,28.00
2019-01-18T03:53:39.114Z,21.30
2019-01-18T03:54:39.103Z,22.10
2019-01-18T03:55:39.091Z,22.70
2019-01-18T03:56:39.080Z,26.90
2019-01-18T03:57:39.061Z,23.40
2019-01-18T03:58:39.043Z,21.90
2019-01-18T03:59:39.028Z,27.50
2019-01-18T04:00:39.015Z,27.20
2019-01-18T04:01:39.006Z,31.00
2019-01-18T04:02:38.989Z,25.30
2019-01-18T04:03:38.981Z,29.60
2019-01-18T04:04:38.963Z,26.80
2019-01-18T04:05:38.962Z,30.30
2019-01-18T04:06:38.930Z,26.30
2019-01-18T04:07:38.916Z,27.50
2019-01-18T04:08:38.907Z,30.50
2019-01-18T04:09:38.893Z,28.20
2019-01-18T04:10:38.875Z,30.70
2019-01-18T04:11:38.858Z,32.60
2019-01-18T04:12:38.845Z,27.80
2019-01-18T04:13:38.836Z,25.70
2019-01-18T04:14:38.821Z,25.80
2019-01-18T04:15:38.806Z,26.90
2019-01-18T04:16:38.795Z,26.80
2019-01-18T04:17:38.780Z,27.90
2019-01-18T04:18:38.773Z,27.70
2019-01-18T04:19:38.748Z,25.30
2019-01-18T04:20:38.733Z,26.40
2019-01-18T04:21:38.718Z,27.00
2019-01-18T04:22:38.707Z,27.70
2019-01-18T04:23:38.694Z,27.10
2019-01-18T04:24:38.675Z,25.00
2019-01-18T04:25:38.660Z,22.30
2019-01-18T04:26:38.651Z,23.40
2019-01-18T04:27:38.636Z,24.30
2019-01-18T04:28:38.623Z,25.60
2019-01-18T04:29:38.610Z,26.60
2019-01-18T04:30:38.590Z,24.20
2019-01-18T04:31:38.577Z,24.00
2019-01-18T04:32:38.564Z,21.70
2019-01-18T04:33:38.552Z,28.60
2019-01-18T04:34:38.538Z,26.20
2019-01-18T04:35:38.526Z,24.10
2019-01-18T04:36:38.508Z,24.70
2019-01-18T04:37:38.495Z,25.80
2019-01-18T04:38:38.477Z,26.50
2019-01-18T04:39:38.465Z,22.90
2019-01-18T04:40:38.452Z,24.90
2019-01-18T04:41:38.437Z,25.30
2019-01-18T04:42:38.421Z,25.80
2019-01-18T04:43:38.414Z,26.20
2019-01-18T04:44:38.392Z,23.00
2019-01-18T04:45:38.378Z,26.60
2019-01-18T04:46:38.369Z,34.50
2019-01-18T04:47:38.356Z,29.30
2019-01-18T04:48:38.339Z,30.10
2019-01-18T04:49:38.323Z,27.00
2019-01-18T04:50:38.305Z,31.60
2019-01-18T04:51:38.290Z,28.00
2019-01-18T04:52:38.278Z,28.50
2019-01-18T04:53:38.263Z,26.00
2019-01-18T04:54:38.251Z,28.70
2019-01-18T04:55:38.238Z,26.50
2019-01-18T04:56:38.220Z,24.70
2019-01-18T04:57:38.205Z,23.90
2019-01-18T04:58:38.196Z,20.90
2019-01-18T04:59:38.180Z,26.70
2019-01-18T05:00:41.007Z,21.70
2019-01-18T05:01:38.154Z,23.20
2019-01-18T05:02:38.136Z,26.20
2019-01-18T05:03:38.120Z,23.80
2019-01-18T05:04:38.105Z,22.90
2019-01-18T05:05:38.092Z,24.10
2019-01-18T05:06:38.088Z,25.80
2019-01-18T05:07:38.066Z,23.50
2019-01-18T05:08:38.053Z,22.90
2019-01-18T05:09:38.037Z,22.60
2019-01-18T05:10:38.019Z,24.10
2019-01-18T05:11:38.008Z,30.20
2019-01-18T05:12:37.994Z,19.90
2019-01-18T05:13:37.981Z,24.90
2019-01-18T05:14:37.961Z,24.50
2019-01-18T05:15:37.948Z,24.10
2019-01-18T05:16:37.935Z,23.10
2019-01-18T05:17:37.920Z,26.30
2019-01-18T05:18:37.909Z,21.50
2019-01-18T05:19:37.895Z,22.70
2019-01-18T05:20:37.880Z,25.60
2019-01-18T05:21:37.867Z,21.80
2019-01-18T05:22:37.850Z,24.80
2019-01-18T05:23:37.831Z,25.20
2019-01-18T05:24:37.819Z,20.90
2019-01-18T05:25:37.804Z,24.80
2019-01-18T05:26:37.794Z,25.00
2019-01-18T05:27:37.781Z,25.10
2019-01-18T05:28:37.762Z,30.90
2019-01-18T05:29:37.746Z,27.60
2019-01-18T05:30:37.737Z,23.10
2019-01-18T05:31:37.722Z,30.50
2019-01-18T05:32:37.707Z,30.30
2019-01-18T05:33:37.694Z,28.70
2019-01-18T05:34:37.673Z,29.90
2019-01-18T05:35:37.660Z,33.10
2019-01-18T05:36:37.646Z,31.90
2019-01-18T05:37:37.631Z,32.30
2019-01-18T05:38:37.619Z,30.60
2019-01-18T05:39:37.606Z,28.20
2019-01-18T05:40:37.592Z,28.90
2019-01-18T05:41:37.579Z,31.80
2019-01-18T05:42:37.559Z,21.90
2019-01-18T05:43:37.543Z,25.80
2019-01-18T05:44:37.534Z,27.30
2019-01-18T05:45:37.521Z,32.80
2019-01-18T05:46:37.500Z,25.40
2019-01-18T05:47:37.485Z,28.00
2019-01-18T05:48:37.471Z,31.10
2019-01-18T05:49:37.461Z,31.20
2019-01-18T05:50:37.446Z,38.20
2019-01-18T05:51:37.432Z,30.60
2019-01-18T05:52:37.417Z,29.80
2019-01-18T05:53:37.405Z,33.90
2019-01-18T05:54:37.383Z,32.70
2019-01-18T05:55:37.377Z,32.50
2019-01-18T05:56:37.359Z,32.80
2019-01-18T05:57:37.341Z,32.30
2019-01-18T05:58:37.330Z,34.10
2019-01-18T05:59:37.325Z,26.00
2019-01-18T06:00:37.298Z,25.40
2019-01-18T06:01:37.285Z,30.60
2019-01-18T06:02:37.273Z,27.40
2019-01-18T06:03:37.258Z,22.50
2019-01-18T06:04:37.243Z,30.30
2019-01-18T06:05:37.229Z,27.00
2019-01-18T06:06:37.208Z,32.70
2019-01-18T06:07:37.194Z,25.00
2019-01-18T06:08:37.180Z,30.70
2019-01-18T06:09:37.165Z,29.40
2019-01-18T06:10:37.155Z,25.90
2019-01-18T06:11:37.142Z,23.20
2019-01-18T06:12:37.128Z,19.80
2019-01-18T06:13:37.114Z,20.90
2019-01-18T06:14:37.094Z,18.30
2019-01-18T06:15:37.083Z,22.40
2019-01-18T06:16:37.071Z,20.40
2019-01-18T06:17:37.067Z,17.80
2019-01-18T06:18:37.036Z,18.30
2019-01-18T06:19:37.023Z,20.10
2019-01-18T06:20:37.011Z,18.50
2019-01-18T06:21:36.994Z,17.90
2019-01-18T06:22:36.985Z,18.90
2019-01-18T06:23:36.970Z,19.10
2019-01-18T06:24:36.956Z,19.70
2019-01-18T06:25:36.946Z,21.70
2019-01-18T06:26:36.922Z,23.60
2019-01-18T06:27:36.909Z,19.60
2019-01-18T06:28:36.897Z,20.90
2019-01-18T06:29:36.881Z,23.90
2019-01-18T06:30:36.869Z,21.00
2019-01-18T06:31:36.856Z,20.60
2019-01-18T06:32:36.837Z,22.60
2019-01-18T06:33:36.823Z,19.20
2019-01-18T06:34:36.814Z,23.60
2019-01-18T06:35:36.799Z,24.20
2019-01-18T06:36:36.788Z,25.00
2019-01-18T06:37:36.774Z,28.30
2019-01-18T06:38:36.754Z,21.30
2019-01-18T06:39:36.739Z,22.90
2019-01-18T06:40:36.725Z,25.30
2019-01-18T06:41:36.713Z,23.50
2019-01-18T06:42:36.702Z,24.60
2019-01-18T06:43:36.689Z,25.70
2019-01-18T06:44:36.674Z,24.50
2019-01-18T06:45:36.661Z,30.10
2019-01-18T06:46:36.642Z,22.50
2019-01-18T06:47:36.628Z,23.90
2019-01-18T06:48:36.618Z,24.60
2019-01-18T06:49:36.605Z,25.90
2019-01-18T06:50:36.586Z,29.50
2019-01-18T06:51:36.571Z,30.40
2019-01-18T06:52:36.559Z,30.00
2019-01-18T06:53:36.544Z,30.80
2019-01-18T06:54:36.536Z,27.50
2019-01-18T06:55:36.522Z,32.80
2019-01-18T06:56:36.507Z,34.00
2019-01-18T06:57:36.495Z,38.10
2019-01-18T06:58:36.475Z,35.00
2019-01-18T06:59:36.461Z,34.70
2019-01-18T07:00:36.451Z,39.10
2019-01-18T07:01:36.433Z,43.50
2019-01-18T07:02:36.422Z,47.30
2019-01-18T07:03:36.410Z,43.00
2019-01-18T07:04:40.836Z,49.00
2019-01-18T07:05:36.377Z,41.90
2019-01-18T07:06:36.367Z,39.10
2019-01-18T07:07:36.353Z,31.10
2019-01-18T07:08:36.341Z,41.00
2019-01-18T07:09:36.327Z,47.20
2019-01-18T07:10:36.307Z,47.50
2019-01-18T07:11:36.293Z,40.30
2019-01-18T07:12:36.279Z,44.20
2019-01-18T07:13:36.265Z,43.40
2019-01-18T07:14:36.255Z,36.00
2019-01-18T07:15:36.242Z,46.50
2019-01-18T07:16:36.226Z,42.10
2019-01-18T07:17:36.212Z,53.00
2019-01-18T07:18:36.194Z,50.60
2019-01-18T07:19:36.180Z,62.30
2019-01-18T07:20:36.171Z,47.70
2019-01-18T07:21:36.158Z,51.10
2019-01-18T07:22:36.137Z,55.70
2019-01-18T07:23:36.123Z,60.90
2019-01-18T07:24:36.111Z,56.90
2019-01-18T07:25:36.099Z,65.70
2019-01-18T07:26:36.086Z,61.90
2019-01-18T07:27:36.075Z,63.00
2019-01-18T07:28:36.057Z,69.10
2019-01-18T07:29:36.044Z,67.10
2019-01-18T07:30:36.025Z,59.60
2019-01-18T07:31:36.011Z,68.30
2019-01-18T07:32:35.997Z,65.30
2019-01-18T07:33:35.982Z,70.90
2019-01-18T07:34:35.972Z,64.60
2019-01-18T07:35:35.958Z,62.10
2019-01-18T07:36:35.939Z,65.80
2019-01-18T07:37:35.926Z,67.10
2019-01-18T07:38:35.916Z,64.20
2019-01-18T07:39:35.902Z,62.90
2019-01-18T07:40:35.887Z,63.30
2019-01-18T07:41:35.873Z,69.80
2019-01-18T07:42:35.854Z,65.80
2019-01-18T07:43:35.839Z,58.50
2019-01-18T07:44:35.826Z,64.40
2019-01-18T07:45:35.810Z,66.40
2019-01-18T07:46:35.801Z,64.50
2019-01-18T07:47:35.787Z,53.90
2019-01-18T07:48:35.773Z,62.70
2019-01-18T07:49:35.759Z,60.90
2019-01-18T07:50:35.739Z,61.30
2019-01-18T07:51:35.725Z,60.80
2019-01-18T07:52:35.715Z,58.60
2019-01-18T07:53:35.706Z,65.80
2019-01-18T07:54:35.682Z,57.70
2019-01-18T07:55:35.668Z,62.20
2019-01-18T07:56:35.655Z,58.50
2019-01-18T07:57:35.639Z,57.70
2019-01-18T07:58:35.629Z,60.10
2019-01-18T07:59:35.614Z,61.70
2019-01-18T08:00:35.601Z,59.50
2019-01-18T08:01:35.587Z,63.60
2019-01-18T08:02:35.569Z,63.40
2019-01-18T08:03:35.554Z,64.70
2019-01-18T08:04:35.539Z,69.00
2019-01-18T08:05:35.526Z,69.00
2019-01-18T08:06:35.517Z,62.50
2019-01-18T08:07:35.502Z,70.00
2019-01-18T08:08:35.483Z,72.90
2019-01-18T08:09:35.469Z,67.20
2019-01-18T08:10:35.459Z,66.80
2019-01-18T08:11:35.445Z,72.50
2019-01-18T08:12:35.434Z,85.90
2019-01-18T08:13:35.417Z,79.80
2019-01-18T08:14:35.397Z,71.70
2019-01-18T08:15:35.385Z,75.40
2019-01-18T08:16:35.369Z,83.00
2019-01-18T08:17:35.355Z,89.10
2019-01-18T08:18:35.345Z,105.70
2019-01-18T08:19:35.330Z,113.50
2019-01-18T08:20:35.317Z,178.90
2019-01-18T08:21:35.303Z,293.60
2019-01-18T08:22:35.283Z,123.50
2019-01-18T08:23:35.270Z,148.40
2019-01-18T08:24:35.260Z,110.50
2019-01-18T08:25:35.248Z,133.00
2019-01-18T08:26:35.247Z,115.60
2019-01-18T08:27:35.213Z,185.00
2019-01-18T08:28:35.199Z,115.30
2019-01-18T08:29:35.186Z,140.10
2019-01-18T08:30:35.175Z,169.70
2019-01-18T08:31:35.165Z,157.90
2019-01-18T08:32:35.150Z,111.00
2019-01-18T08:33:35.134Z,105.90
2019-01-18T08:34:35.114Z,110.00
2019-01-18T08:35:35.101Z,112.60
2019-01-18T08:36:35.090Z,129.70
2019-01-18T08:37:35.073Z,105.60
2019-01-18T08:38:35.062Z,95.90
2019-01-18T08:39:35.049Z,115.50
2019-01-18T08:40:35.033Z,126.10
2019-01-18T08:41:35.018Z,110.90
2019-01-18T08:42:35.005Z,101.70
2019-01-18T08:43:34.994Z,93.30
2019-01-18T08:44:34.980Z,83.50
2019-01-18T08:45:34.970Z,81.50
2019-01-18T08:46:34.949Z,76.20
2019-01-18T08:47:34.935Z,114.00
2019-01-18T08:48:34.920Z,68.20
2019-01-18T08:49:34.907Z,60.10
2019-01-18T08:50:34.897Z,57.30
2019-01-18T08:51:34.884Z,59.10
2019-01-18T08:52:34.870Z,53.60
2019-01-18T08:53:34.855Z,56.10
2019-01-18T08:54:34.846Z,53.10
2019-01-18T08:55:34.829Z,50.60
2019-01-18T08:56:34.816Z,57.10
2019-01-18T08:57:34.801Z,56.90
2019-01-18T08:58:34.784Z,58.60
2019-01-18T08:59:34.771Z,57.60
2019-01-18T09:00:34.758Z,54.00
2019-01-18T09:01:35.894Z,47.10
2019-01-18T09:02:34.735Z,50.00
2019-01-18T09:03:34.761Z,75.20
2019-01-18T09:04:34.710Z,55.10
2019-01-18T09:05:34.697Z,57.80
2019-01-18T09:06:34.677Z,65.10
2019-01-18T09:07:34.665Z,60.60
2019-01-18T09:08:34.652Z,70.20
2019-01-18T09:09:34.639Z,66.40
2019-01-18T09:10:34.629Z,53.50
2019-01-18T09:11:34.620Z,44.00
2019-01-18T09:12:34.600Z,45.20
2019-01-18T09:13:34.586Z,43.30
2019-01-18T09:14:34.578Z,47.80
2019-01-18T09:15:34.586Z,46.40
2019-01-18T09:16:34.552Z,41.10
2019-01-18T09:17:34.540Z,41.80
2019-01-18T09:18:34.521Z,44.20
2019-01-18T09:19:34.511Z,40.10
2019-01-18T09:20:34.496Z,50.90
2019-01-18T09:21:34.485Z,32.60
2019-01-18T09:22:34.476Z,35.70
2019-01-18T09:23:34.463Z,34.20
2019-01-18T09:24:34.450Z,34.70
2019-01-18T09:25:34.439Z,36.60
2019-01-18T09:26:34.421Z,35.00
2019-01-18T09:27:34.409Z,31.80
2019-01-18T09:28:34.401Z,32.30
2019-01-18T09:29:34.391Z,31.90
2019-01-18T09:30:34.373Z,29.00
2019-01-18T09:31:34.362Z,32.10
2019-01-18T09:32:34.350Z,28.50
2019-01-18T09:33:34.340Z,27.90
2019-01-18T09:34:34.333Z,26.40
2019-01-18T09:35:34.323Z,26.50
2019-01-18T09:36:34.312Z,28.10
2019-01-18T09:37:34.303Z,26.00
2019-01-18T09:38:34.287Z,26.60
2019-01-18T09:39:34.284Z,25.80
2019-01-18T09:40:34.276Z,27.40
2019-01-18T09:41:34.260Z,27.00
2019-01-18T09:42:34.256Z,27.00
2019-01-18T09:43:34.246Z,27.60
2019-01-18T09:44:34.233Z,26.20
2019-01-18T09:45:34.226Z,24.20
2019-01-18T09:46:34.220Z,27.80
2019-01-18T09:47:34.217Z,26.10
2019-01-18T09:48:34.205Z,26.70
2019-01-18T09:49:34.197Z,28.40
2019-01-18T09:50:34.184Z,30.40
2019-01-18T09:51:34.176Z,29.00
2019-01-18T09:52:34.169Z,27.00
2019-01-18T09:53:34.162Z,31.50
2019-01-18T09:54:34.158Z,32.00
2019-01-18T09:55:34.173Z,28.50
2019-01-18T09:56:34.145Z,25.20
2019-01-18T09:57:34.138Z,29.00
2019-01-18T09:58:34.125Z,26.40
2019-01-18T09:59:34.120Z,29.00
2019-01-18T10:00:34.120Z,29.80
2019-01-18T10:01:34.113Z,24.20
2019-01-18T10:02:34.107Z,28.20
2019-01-18T10:03:34.097Z,28.80
2019-01-18T10:04:34.092Z,24.60
2019-01-18T10:05:34.086Z,24.70
2019-01-18T10:06:34.085Z,27.20
2019-01-18T10:07:34.080Z,28.30
2019-01-18T10:08:34.075Z,31.60
2019-01-18T10:09:34.079Z,30.50
2019-01-18T10:10:34.059Z,33.10
2019-01-18T10:11:34.054Z,35.00
2019-01-18T10:12:34.049Z,34.00
2019-01-18T10:13:34.044Z,31.50
2019-01-18T10:14:34.042Z,27.70
2019-01-18T10:15:34.043Z,27.70
2019-01-18T10:16:34.027Z,28.10
2019-01-18T10:17:34.023Z,26.80
2019-01-18T10:18:34.019Z,26.60
2019-01-18T10:19:34.013Z,27.20
2019-01-18T10:20:34.008Z,30.30
2019-01-18T10:21:34.000Z,30.10
2019-01-18T10:22:33.991Z,33.40
2019-01-18T10:23:33.983Z,31.70
2019-01-18T10:24:33.978Z,32.60
2019-01-18T10:25:33.969Z,31.30
2019-01-18T10:26:33.967Z,34.00
2019-01-18T10:27:33.960Z,32.60
2019-01-18T10:28:33.955Z,29.20
2019-01-18T10:29:33.948Z,31.10
2019-01-18T10:30:33.938Z,30.20
2019-01-18T10:31:33.928Z,29.90
2019-01-18T10:32:33.927Z,29.20
2019-01-18T10:33:33.918Z,31.00
2019-01-18T10:34:33.905Z,32.30
2019-01-18T10:35:33.898Z,35.10
2019-01-18T10:36:33.889Z,34.50
2019-01-18T10:37:33.899Z,35.30
2019-01-18T10:38:33.880Z,35.80
2019-01-18T10:39:33.871Z,37.30
2019-01-18T10:40:33.863Z,31.40
2019-01-18T10:41:33.855Z,27.70
2019-01-18T10:42:33.843Z,33.90
2019-01-18T10:43:33.834Z,31.10
2019-01-18T10:44:33.828Z,29.70
2019-01-18T10:45:33.821Z,33.00
2019-01-18T10:46:33.819Z,31.00
2019-01-18T10:47:33.812Z,27.60
2019-01-18T10:48:33.800Z,29.60
2019-01-18T10:49:33.794Z,30.50
2019-01-18T10:50:33.793Z,28.20
2019-01-18T10:51:33.790Z,28.30
2019-01-18T10:52:33.780Z,29.50
2019-01-18T10:53:33.775Z,29.00
2019-01-18T10:54:33.765Z,30.30
2019-01-18T10:55:33.758Z,27.20
2019-01-18T10:56:33.756Z,32.10
2019-01-18T10:57:33.748Z,30.20
2019-01-18T10:58:33.747Z,29.60
2019-01-18T10:59:33.740Z,29.60
2019-01-18T11:00:33.737Z,29.70
2019-01-18T11:01:34.042Z,34.80
2019-01-18T11:02:33.722Z,32.90
2019-01-18T11:03:33.714Z,29.80
2019-01-18T11:04:33.715Z,28.80
2019-01-18T11:05:33.711Z,29.50
2019-01-18T11:06:33.695Z,30.40
2019-01-18T11:07:33.691Z,31.20
2019-01-18T11:08:33.686Z,32.30
2019-01-18T11:09:33.679Z,33.70
2019-01-18T11:10:33.676Z,36.90
2019-01-18T11:11:33.670Z,29.40
2019-01-18T11:12:33.665Z,29.40
2019-01-18T11:13:33.657Z,31.60
2019-01-18T11:14:33.647Z,32.60
2019-01-18T11:15:35.896Z,34.60
2019-01-18T11:16:33.635Z,31.50
2019-01-18T11:17:33.630Z,30.80
2019-01-18T11:18:33.624Z,29.30
2019-01-18T11:19:33.619Z,33.00
2019-01-18T11:20:33.606Z,27.70
2019-01-18T11:21:33.600Z,25.90
2019-01-18T11:22:33.597Z,25.90
2019-01-18T11:23:33.590Z,26.50
2019-01-18T11:24:33.668Z,24.80
2019-01-18T11:25:33.576Z,29.60
2019-01-18T11:26:33.567Z,26.40
2019-01-18T11:27:33.558Z,27.40
2019-01-18T11:28:33.551Z,24.90
2019-01-18T11:29:33.546Z,27.50
2019-01-18T11:30:33.542Z,28.90
2019-01-18T11:31:33.536Z,22.50
2019-01-18T11:32:33.531Z,24.70
2019-01-18T11:33:33.524Z,26.20
2019-01-18T11:34:33.512Z,25.80
2019-01-18T11:35:33.506Z,27.00
2019-01-18T11:36:33.504Z,29.00
2019-01-18T11:37:33.496Z,24.90
2019-01-18T11:38:33.486Z,25.00
2019-01-18T11:39:33.479Z,28.80
2019-01-18T11:40:33.471Z,32.90
2019-01-18T11:41:33.464Z,33.30
2019-01-18T11:42:33.463Z,29.10
2019-01-18T11:43:33.455Z,30.80
2019-01-18T11:44:33.449Z,29.70
2019-01-18T11:45:33.444Z,34.30
2019-01-18T11:46:33.428Z,33.90
2019-01-18T11:47:33.421Z,28.80
2019-01-18T11:48:33.414Z,28.10
2019-01-18T11:49:33.408Z,35.00
2019-01-18T11:50:33.403Z,35.00
2019-01-18T11:51:33.395Z,34.80
2019-01-18T11:52:33.383Z,31.40
2019-01-18T11:53:33.374Z,33.80
2019-01-18T11:54:33.371Z,29.50
2019-01-18T11:55:33.363Z,31.10
2019-01-18T11:56:33.355Z,29.10
2019-01-18T11:57:33.347Z,27.50
2019-01-18T11:58:33.334Z,27.10
2019-01-18T11:59:33.326Z,30.50
2019-01-18T12:00:37.749Z,32.30
2019-01-18T12:01:33.347Z,32.20
2019-01-18T12:02:33.304Z,27.50
2019-01-18T12:03:33.297Z,27.50
2019-01-18T12:04:33.287Z,29.90
2019-01-18T12:05:33.277Z,28.60
2019-01-18T12:06:33.265Z,35.00
2019-01-18T12:07:33.256Z,33.90
2019-01-18T12:08:33.252Z,31.40
2019-01-18T12:09:33.243Z,30.90
2019-01-18T12:10:33.229Z,30.60
2019-01-18T12:11:33.220Z,33.40
2019-01-18T12:12:33.211Z,32.40
2019-01-18T12:13:33.203Z,37.30
2019-01-18T12:14:33.198Z,33.20
2019-01-18T12:15:33.189Z,31.30
2019-01-18T12:16:33.182Z,30.30
2019-01-18T12:17:33.171Z,34.20
2019-01-18T12:18:33.158Z,31.90
2019-01-18T12:19:33.147Z,31.10
2019-01-18T12:20:33.138Z,38.80
2019-01-18T12:21:37.120Z,36.10
2019-01-18T12:22:33.123Z,29.40
2019-01-18T12:23:33.113Z,37.60
2019-01-18T12:24:33.099Z,30.40
2019-01-18T12:25:33.098Z,33.80
2019-01-18T12:26:33.086Z,40.50
2019-01-18T12:27:33.075Z,33.60
2019-01-18T12:28:33.065Z,31.20
2019-01-18T12:29:33.054Z,33.80
2019-01-18T12:30:33.041Z,34.00
2019-01-18T12:31:33.030Z,35.00
2019-01-18T12:32:33.021Z,34.50
2019-01-18T12:33:33.013Z,31.90
2019-01-18T12:34:33.004Z,36.40
2019-01-18T12:35:32.995Z,36.90
2019-01-18T12:36:32.984Z,33.50
2019-01-18T12:37:32.974Z,34.50
2019-01-18T12:38:32.959Z,39.40
2019-01-18T12:39:32.949Z,35.20
2019-01-18T12:40:32.951Z,40.30
2019-01-18T12:41:32.931Z,35.00
2019-01-18T12:42:32.916Z,37.30
2019-01-18T12:43:32.907Z,42.50
2019-01-18T12:44:32.895Z,40.10
2019-01-18T12:45:32.885Z,42.00
2019-01-18T12:46:32.878Z,39.60
2019-01-18T12:47:32.868Z,41.30
2019-01-18T12:48:32.858Z,37.10
2019-01-18T12:49:32.846Z,39.30
2019-01-18T12:50:32.830Z,41.50
2019-01-18T12:51:32.819Z,38.90